Time;durP1;ratioP1;P1;durP2;ratioP2;P2;SDS_P1;SDS_P2;PMS_P1;PMS_P2;Temp;Humidity;BMP_temperature;BMP_pressure;BME280_temperature;BME280_humidity;BME280_pressure;Samples;Min_cycle;Max_cycle;Signal;HPM_P1;HPM_P2
2022/07/30 00:01:11;;;;;;;3.28;1.60;;;;;;;;;;5041512;28;20067;-69
2022/07/30 00:03:36;;;;;;;2.90;1.60;;;;;;;;;;5042747;28;20068;-69
2022/07/30 00:06:02;;;;;;;1.60;1.50;;;;;;;;;;5042424;28;20557;-69
2022/07/30 00:08:27;;;;;;;5.07;1.70;;;;;;;;;;5041056;28;20045;-69
2022/07/30 00:10:53;;;;;;;7.72;1.58;;;;;;;;;;5043456;28;20106;-69
2022/07/30 00:13:18;;;;;;;2.20;1.55;;;;;;;;;;5042951;28;20701;-69
2022/07/30 00:15:44;;;;;;;3.00;1.55;;;;;;;;;;5041272;28;20487;-69
2022/07/30 00:18:09;;;;;;;2.70;1.63;;;;;;;;;;5042142;28;20407;-69
2022/07/30 00:20:35;;;;;;;1.70;1.38;;;;;;;;;;5042302;28;20041;-69
2022/07/30 00:23:03;;;;;;;3.47;1.42;;;;;;;;;;5042695;28;20037;-69
2022/07/30 00:25:29;;;;;;;1.60;1.50;;;;;;;;;;5042395;28;20052;-69
2022/07/30 00:27:54;;;;;;;2.65;1.60;;;;;;;;;;5042673;28;20041;-69
2022/07/30 00:30:20;;;;;;;2.05;1.70;;;;;;;;;;5037224;28;20041;-69
2022/07/30 00:32:46;;;;;;;2.83;1.88;;;;;;;;;;5028748;28;20037;-69
2022/07/30 00:35:12;;;;;;;1.90;1.80;;;;;;;;;;5038391;28;20113;-69
2022/07/30 00:37:38;;;;;;;2.03;1.90;;;;;;;;;;5021364;28;20045;-69
2022/07/30 00:40:05;;;;;;;2.08;1.77;;;;;;;;;;5035612;28;20066;-69
2022/07/30 00:42:42;;;;;;;1.92;1.70;;;;;;;;;;5033331;28;20041;-69
2022/07/30 00:45:08;;;;;;;5.28;2.10;;;;;;;;;;5034308;28;20060;-69
2022/07/30 00:47:34;;;;;;;4.90;2.17;;;;;;;;;;5024282;28;20040;-69
2022/07/30 00:50:03;;;;;;;2.97;2.10;;;;;;;;;;5042329;28;20053;-70
2022/07/30 00:52:31;;;;;;;2.35;1.85;;;;;;;;;;5039681;28;20059;-69
2022/07/30 00:54:58;;;;;;;4.15;2.17;;;;;;;;;;5042598;28;20049;-70
2022/07/30 00:57:24;;;;;;;2.75;2.15;;;;;;;;;;5024250;28;20045;-70
2022/07/30 00:59:49;;;;;;;2.45;1.98;;;;;;;;;;5028179;28;20088;-70
2022/07/30 01:02:15;;;;;;;4.45;2.38;;;;;;;;;;5023067;28;20040;-69
2022/07/30 01:04:40;;;;;;;3.42;2.08;;;;;;;;;;5041440;28;20045;-70
2022/07/30 01:07:06;;;;;;;3.38;2.05;;;;;;;;;;5024635;28;20532;-69
2022/07/30 01:09:31;;;;;;;1.80;1.70;;;;;;;;;;5021490;28;20095;-70
2022/07/30 01:11:57;;;;;;;4.47;2.00;;;;;;;;;;5020632;28;20068;-69
2022/07/30 01:14:23;;;;;;;2.67;2.47;;;;;;;;;;5022804;28;20041;-70
2022/07/30 01:16:49;;;;;;;4.72;2.40;;;;;;;;;;5025953;28;20110;-69
2022/07/30 01:22:17;;;;;;;4.10;2.47;;;;;;;;;;5019910;28;20084;-70
2022/07/30 01:24:54;;;;;;;2.40;2.15;;;;;;;;;;5032626;28;20334;-70
2022/07/30 01:27:22;;;;;;;4.20;2.40;;;;;;;;;;5046737;28;20053;-69
2022/07/30 01:29:49;;;;;;;5.35;2.50;;;;;;;;;;5041604;28;20044;-70
2022/07/30 01:32:17;;;;;;;3.65;2.35;;;;;;;;;;5021272;28;20067;-70
2022/07/30 01:34:44;;;;;;;3.20;1.98;;;;;;;;;;5026423;28;20057;-69
2022/07/30 01:37:10;;;;;;;4.88;2.10;;;;;;;;;;5025399;28;21119;-70
2022/07/30 01:39:37;;;;;;;4.35;2.08;;;;;;;;;;5022910;28;20045;-70
2022/07/30 01:42:06;;;;;;;2.88;2.40;;;;;;;;;;5040340;28;20047;-70
2022/07/30 01:44:32;;;;;;;2.08;1.98;;;;;;;;;;5020729;28;21108;-70
2022/07/30 01:46:58;;;;;;;3.17;2.17;;;;;;;;;;5029374;28;20466;-69
2022/07/30 01:49:25;;;;;;;3.58;2.30;;;;;;;;;;5022616;28;20092;-69
2022/07/30 01:51:53;;;;;;;2.58;2.30;;;;;;;;;;5036979;28;20049;-69
2022/07/30 01:54:22;;;;;;;2.55;2.35;;;;;;;;;;5022964;28;20099;-69
2022/07/30 01:56:49;;;;;;;3.30;2.30;;;;;;;;;;5024972;28;20128;-69
2022/07/30 01:59:18;;;;;;;4.30;2.60;;;;;;;;;;5025031;28;20053;-69
2022/07/30 02:01:46;;;;;;;3.20;2.28;;;;;;;;;;5025616;28;20052;-69
2022/07/30 02:04:12;;;;;;;3.88;2.20;;;;;;;;;;5022566;28;20586;-69
2022/07/30 02:06:41;;;;;;;5.00;2.47;;;;;;;;;;5019078;28;20080;-69
2022/07/30 02:09:18;;;;;;;3.60;2.60;;;;;;;;;;5022253;28;20099;-69
2022/07/30 02:15:07;;;;;;;4.18;2.22;;;;;;;;;;5038765;28;20088;-69
2022/07/30 02:17:44;;;;;;;4.03;2.78;;;;;;;;;;5035811;28;20026;-69
2022/07/30 02:20:12;;;;;;;5.07;2.53;;;;;;;;;;5026299;28;20107;-70
2022/07/30 02:22:42;;;;;;;2.58;2.38;;;;;;;;;;5038998;28;20053;-69
2022/07/30 02:25:09;;;;;;;3.88;2.28;;;;;;;;;;5038334;28;20072;-69
2022/07/30 02:27:39;;;;;;;2.60;2.40;;;;;;;;;;5029275;28;20103;-69
2022/07/30 02:30:05;;;;;;;4.60;2.67;;;;;;;;;;5039568;28;20071;-69
2022/07/30 02:32:37;;;;;;;2.83;2.53;;;;;;;;;;5037954;28;20053;-69
2022/07/30 02:35:10;;;;;;;2.97;2.70;;;;;;;;;;5028252;28;20095;-69
2022/07/30 02:37:37;;;;;;;4.53;2.83;;;;;;;;;;5022277;28;20778;-69
2022/07/30 02:40:03;;;;;;;4.07;2.30;;;;;;;;;;5033297;28;20041;-69
2022/07/30 02:42:30;;;;;;;5.57;2.72;;;;;;;;;;5037672;28;20052;-69
2022/07/30 02:44:57;;;;;;;6.68;2.50;;;;;;;;;;5034848;28;20037;-69
2022/07/30 02:47:25;;;;;;;2.60;2.38;;;;;;;;;;5022910;28;20044;-69
2022/07/30 02:49:56;;;;;;;3.05;2.40;;;;;;;;;;5037635;28;20052;-70
2022/07/30 02:52:26;;;;;;;5.05;2.60;;;;;;;;;;5038692;28;20083;-69
2022/07/30 02:54:55;;;;;;;3.55;2.33;;;;;;;;;;5034197;28;20128;-69
2022/07/30 02:57:21;;;;;;;3.42;2.33;;;;;;;;;;5037948;28;20041;-68
2022/07/30 02:59:48;;;;;;;3.70;2.40;;;;;;;;;;5038528;28;20037;-69
2022/07/30 03:02:16;;;;;;;2.40;2.20;;;;;;;;;;5035354;28;20045;-69
2022/07/30 03:04:42;;;;;;;3.65;2.30;;;;;;;;;;5034658;28;20495;-69
2022/07/30 03:07:09;;;;;;;3.80;2.55;;;;;;;;;;5038116;28;20060;-68
2022/07/30 03:09:37;;;;;;;2.60;2.35;;;;;;;;;;5034913;28;20049;-68
2022/07/30 03:12:04;;;;;;;9.02;3.05;;;;;;;;;;5016141;28;20053;-69
2022/07/30 03:14:30;;;;;;;3.25;2.33;;;;;;;;;;5033262;28;20053;-69
2022/07/30 03:16:58;;;;;;;3.90;2.80;;;;;;;;;;5032761;28;20045;-68
2022/07/30 03:19:28;;;;;;;6.18;2.83;;;;;;;;;;5033377;28;20566;-68
2022/07/30 03:21:55;;;;;;;3.05;2.47;;;;;;;;;;5047077;28;20130;-68
2022/07/30 03:24:23;;;;;;;6.28;2.30;;;;;;;;;;5040109;28;20414;-68
2022/07/30 03:26:50;;;;;;;8.60;3.00;;;;;;;;;;5038194;28;20179;-68
2022/07/30 03:29:17;;;;;;;4.47;2.88;;;;;;;;;;5041584;28;20392;-68
2022/07/30 03:31:42;;;;;;;3.63;2.80;;;;;;;;;;5039849;28;20041;-69
2022/07/30 03:34:09;;;;;;;3.33;2.72;;;;;;;;;;5037909;28;20078;-68
2022/07/30 03:36:35;;;;;;;9.68;2.90;;;;;;;;;;5041645;28;20041;-69
2022/07/30 03:39:02;;;;;;;13.57;2.97;;;;;;;;;;5038943;28;20080;-68
2022/07/30 03:41:29;;;;;;;10.18;2.90;;;;;;;;;;5038961;28;20064;-68
2022/07/30 03:43:55;;;;;;;2.78;2.47;;;;;;;;;;5039996;28;20049;-69
2022/07/30 03:46:22;;;;;;;5.65;2.40;;;;;;;;;;5039633;28;20106;-69
2022/07/30 03:48:51;;;;;;;4.28;2.47;;;;;;;;;;5038448;28;20057;-68
2022/07/30 03:51:18;;;;;;;6.97;2.70;;;;;;;;;;5043551;28;20091;-69
2022/07/30 03:53:45;;;;;;;6.13;2.60;;;;;;;;;;5038945;28;20535;-70
2022/07/30 03:56:37;;;;;;;3.58;2.85;;;;;;;;;;5039445;28;21501;-70
2022/07/30 03:59:13;;;;;;;4.32;2.63;;;;;;;;;;5036975;28;20047;-69
2022/07/30 04:01:40;;;;;;;6.90;3.20;;;;;;;;;;5047119;28;20045;-70
2022/07/30 04:04:23;;;;;;;6.53;2.92;;;;;;;;;;5026122;28;20065;-70
2022/07/30 04:06:49;;;;;;;5.82;2.97;;;;;;;;;;5038380;28;20118;-70
2022/07/30 04:09:14;;;;;;;4.25;2.95;;;;;;;;;;5041094;28;20496;-68
2022/07/30 04:11:40;;;;;;;6.45;2.97;;;;;;;;;;5039235;28;20554;-69
2022/07/30 04:14:07;;;;;;;5.88;2.80;;;;;;;;;;5038876;28;20075;-69
2022/07/30 04:16:56;;;;;;;8.60;2.85;;;;;;;;;;5040423;28;20041;-68
2022/07/30 04:19:49;;;;;;;3.55;2.70;;;;;;;;;;5041566;28;20148;-69
2022/07/30 04:22:20;;;;;;;3.88;2.70;;;;;;;;;;5038283;28;20140;-69
2022/07/30 04:24:45;;;;;;;2.47;2.28;;;;;;;;;;5041276;28;20548;-69
2022/07/30 04:27:11;;;;;;;3.08;2.67;;;;;;;;;;5042603;28;20152;-68
2022/07/30 04:29:37;;;;;;;3.40;2.03;;;;;;;;;;5037635;28;20064;-68
2022/07/30 04:32:03;;;;;;;2.88;2.42;;;;;;;;;;5036014;28;20142;-68
2022/07/30 04:34:32;;;;;;;3.22;2.30;;;;;;;;;;5040925;28;20041;-68
2022/07/30 04:36:57;;;;;;;3.92;2.10;;;;;;;;;;5037477;28;20138;-68
2022/07/30 04:39:23;;;;;;;3.22;2.10;;;;;;;;;;5038960;28;20136;-71
2022/07/30 04:41:48;;;;;;;5.00;2.38;;;;;;;;;;5042845;28;20052;-69
2022/07/30 04:44:24;;;;;;;14.88;3.50;;;;;;;;;;5041246;28;20051;-69
2022/07/30 04:47:10;;;;;;;3.65;2.28;;;;;;;;;;5038852;28;20057;-68
2022/07/30 04:49:47;;;;;;;2.35;2.22;;;;;;;;;;5037785;28;20137;-69
2022/07/30 04:52:15;;;;;;;4.28;2.25;;;;;;;;;;5038101;28;20053;-70
2022/07/30 04:54:54;;;;;;;2.47;2.30;;;;;;;;;;5055800;28;20053;-68
2022/07/30 04:57:20;;;;;;;2.47;2.20;;;;;;;;;;5023978;28;20045;-67
2022/07/30 04:59:46;;;;;;;3.33;2.53;;;;;;;;;;5028590;28;20091;-69
2022/07/30 05:02:13;;;;;;;5.40;2.40;;;;;;;;;;5030368;28;20052;-69
2022/07/30 05:04:40;;;;;;;2.72;2.28;;;;;;;;;;5028885;28;20474;-69
2022/07/30 05:07:07;;;;;;;2.33;2.13;;;;;;;;;;5024044;28;20069;-68
2022/07/30 05:09:33;;;;;;;2.80;2.10;;;;;;;;;;5030028;28;20049;-69
2022/07/30 05:12:00;;;;;;;5.97;2.58;;;;;;;;;;5039763;28;20055;-68
2022/07/30 05:14:26;;;;;;;6.68;2.47;;;;;;;;;;5025283;28;20513;-69
2022/07/30 05:16:52;;;;;;;2.63;2.22;;;;;;;;;;5024743;28;20045;-67
2022/07/30 05:19:18;;;;;;;4.85;2.97;;;;;;;;;;5041432;28;20475;-70
2022/07/30 05:21:44;;;;;;;4.18;2.75;;;;;;;;;;5021993;28;20120;-70
2022/07/30 05:24:10;;;;;;;3.95;2.40;;;;;;;;;;5024139;28;20136;-69
2022/07/30 05:26:39;;;;;;;2.88;2.25;;;;;;;;;;5036250;28;20045;-69
2022/07/30 05:29:06;;;;;;;6.40;2.45;;;;;;;;;;5037474;28;20056;-69
2022/07/30 05:31:58;;;;;;;6.72;2.00;;;;;;;;;;5020008;28;20053;-68
2022/07/30 05:34:24;;;;;;;3.90;2.08;;;;;;;;;;5033065;28;20524;-69
2022/07/30 05:36:50;;;;;;;3.97;2.10;;;;;;;;;;5023534;28;20041;-70
2022/07/30 05:39:16;;;;;;;4.28;2.10;;;;;;;;;;5017730;28;20044;-69
2022/07/30 05:42:02;;;;;;;2.22;2.00;;;;;;;;;;5009435;28;20041;-69
2022/07/30 05:44:54;;;;;;;5.60;1.90;;;;;;;;;;5000642;28;20041;-69
2022/07/30 05:47:20;;;;;;;5.82;2.00;;;;;;;;;;5019778;28;20089;-69
2022/07/30 05:49:48;;;;;;;3.42;2.20;;;;;;;;;;5018453;28;20045;-69
2022/07/30 05:52:14;;;;;;;3.45;1.98;;;;;;;;;;5021041;28;20563;-70
2022/07/30 05:54:39;;;;;;;2.95;2.10;;;;;;;;;;5018931;28;20049;-70
2022/07/30 05:57:14;;;;;;;2.20;1.98;;;;;;;;;;5022862;28;20072;-70
2022/07/30 05:59:39;;;;;;;3.60;1.83;;;;;;;;;;5036896;28;20041;-69
2022/07/30 06:02:08;;;;;;;8.25;2.20;;;;;;;;;;5021362;28;20156;-69
2022/07/30 06:05:00;;;;;;;;;;;;;;;;;;4966962;28;20472;-71
2022/07/30 06:07:27;;;;;;;4.05;1.83;;;;;;;;;;4962538;28;20440;-70
2022/07/30 06:09:58;;;;;;;4.88;2.03;;;;;;;;;;4960317;28;20049;-70
2022/07/30 06:12:29;;;;;;;2.65;2.00;;;;;;;;;;4973840;28;20050;-71
2022/07/30 06:14:55;;;;;;;3.50;2.10;;;;;;;;;;4963071;28;20050;-70
2022/07/30 06:17:26;;;;;;;5.03;2.63;;;;;;;;;;4960395;28;20051;-70
2022/07/30 06:20:17;;;;;;;4.55;2.53;;;;;;;;;;4973665;28;20045;-70
2022/07/30 06:23:01;;;;;;;8.50;2.47;;;;;;;;;;4974813;28;20522;-70
2022/07/30 06:25:42;;;;;;;3.92;2.80;;;;;;;;;;4959172;28;20807;-69
2022/07/30 06:28:08;;;;;;;4.43;2.80;;;;;;;;;;4961353;28;20500;-70
2022/07/30 06:30:34;;;;;;;5.63;2.53;;;;;;;;;;4968972;28;20076;-69
2022/07/30 06:32:59;;;;;;;3.67;3.00;;;;;;;;;;5019855;28;20037;-69
2022/07/30 06:35:25;;;;;;;5.00;2.60;;;;;;;;;;5036177;28;20094;-69
2022/07/30 06:37:51;;;;;;;2.80;2.45;;;;;;;;;;5019332;28;20065;-69
2022/07/30 06:40:17;;;;;;;2.97;2.70;;;;;;;;;;5022307;28;20624;-69
2022/07/30 06:43:03;;;;;;;3.65;2.45;;;;;;;;;;5017233;28;20503;-69
2022/07/30 06:45:50;;;;;;;5.85;2.58;;;;;;;;;;5010629;28;20115;-69
2022/07/30 06:48:22;;;;;;;3.88;2.55;;;;;;;;;;5018049;28;20056;-69
2022/07/30 06:50:48;;;;;;;3.58;2.60;;;;;;;;;;5022187;28;20399;-69
2022/07/30 06:53:14;;;;;;;7.80;2.85;;;;;;;;;;5019284;28;20041;-70
2022/07/30 06:56:14;;;;;;;2.70;2.50;;;;;;;;;;4980237;28;20628;-70
2022/07/30 06:59:06;;;;;;;2.85;2.53;;;;;;;;;;5003322;28;20041;-70
2022/07/30 07:01:52;;;;;;;2.65;2.45;;;;;;;;;;5022987;28;20133;-68
2022/07/30 07:04:19;;;;;;;7.25;3.33;;;;;;;;;;5020216;28;20418;-71
2022/07/30 07:06:44;;;;;;;2.70;2.50;;;;;;;;;;5023787;28;20049;-69
2022/07/30 07:09:14;;;;;;;6.05;3.00;;;;;;;;;;5022493;28;20064;-70
2022/07/30 07:11:46;;;;;;;;;;;;;;;;;;5044446;28;20076;-70
2022/07/30 07:14:16;;;;;;;9.27;3.00;;;;;;;;;;5019957;28;19921;-70
2022/07/30 07:16:42;;;;;;;4.68;2.83;;;;;;;;;;5033063;28;20495;-70
2022/07/30 07:19:26;;;;;;;9.10;3.38;;;;;;;;;;5037574;28;20056;-69
2022/07/30 07:21:52;;;;;;;6.55;2.85;;;;;;;;;;5031481;28;20038;-70
2022/07/30 07:24:17;;;;;;;8.30;3.20;;;;;;;;;;5017344;28;20033;-68
2022/07/30 07:26:56;;;;;;;4.72;3.45;;;;;;;;;;5007548;28;20052;-70
2022/07/30 07:29:21;;;;;;;5.72;3.85;;;;;;;;;;5019689;28;20049;-70
2022/07/30 07:31:46;;;;;;;6.13;3.97;;;;;;;;;;5026050;28;20060;-69
2022/07/30 07:34:12;;;;;;;4.85;3.70;;;;;;;;;;5020685;28;20049;-70
2022/07/30 07:36:38;;;;;;;4.53;4.00;;;;;;;;;;5033757;28;20131;-69
2022/07/30 07:39:08;;;;;;;3.85;3.45;;;;;;;;;;5031189;28;20045;-70
2022/07/30 07:41:38;;;;;;;4.10;3.70;;;;;;;;;;5026141;28;20052;-70
2022/07/30 07:44:04;;;;;;;3.95;3.55;;;;;;;;;;5030037;28;20049;-67
2022/07/30 07:46:32;;;;;;;4.13;3.72;;;;;;;;;;5029204;28;20037;-66
2022/07/30 07:48:59;;;;;;;6.53;4.15;;;;;;;;;;5020420;28;20041;-71
2022/07/30 07:51:32;;;;;;;7.53;3.80;;;;;;;;;;5020964;28;20523;-69
2022/07/30 07:53:57;;;;;;;6.20;4.25;;;;;;;;;;5037223;28;20047;-70
2022/07/30 07:56:24;;;;;;;3.30;2.97;;;;;;;;;;5021460;28;20060;-73
2022/07/30 07:58:52;;;;;;;4.32;3.28;;;;;;;;;;5035037;28;20050;-72
2022/07/30 08:01:20;;;;;;;5.18;3.67;;;;;;;;;;5021742;28;20095;-70
2022/07/30 08:04:04;;;;;;;6.25;3.33;;;;;;;;;;5028465;28;20047;-67
2022/07/30 08:06:49;;;;;;;3.95;3.15;;;;;;;;;;5028732;28;20060;-72
2022/07/30 08:09:35;;;;;;;4.53;3.65;;;;;;;;;;5031011;28;20041;-70
2022/07/30 08:12:07;;;;;;;5.75;3.33;;;;;;;;;;5036483;28;20070;-70
2022/07/30 08:15:11;;;;;;;6.03;3.17;;;;;;;;;;5017415;28;20051;-69
2022/07/30 08:17:55;;;;;;;5.65;3.65;;;;;;;;;;5031628;28;20063;-70
2022/07/30 08:20:42;;;;;;;5.75;3.65;;;;;;;;;;5311525;22;20057;-70
2022/07/30 08:23:08;;;;;;;6.03;3.15;;;;;;;;;;5004024;28;20056;-73
2022/07/30 08:25:33;;;;;;;8.65;3.60;;;;;;;;;;5004953;28;20060;-71
2022/07/30 08:28:01;;;;;;;5.95;3.63;;;;;;;;;;5004883;28;20859;-73
2022/07/30 08:30:26;;;;;;;4.82;3.35;;;;;;;;;;5012204;28;20037;-73
2022/07/30 08:32:52;;;;;;;5.90;3.55;;;;;;;;;;4992359;28;20065;-74
2022/07/30 08:35:17;;;;;;;6.95;3.80;;;;;;;;;;4992845;28;20049;-72
2022/07/30 08:37:43;;;;;;;7.63;4.32;;;;;;;;;;4992282;28;20467;-71
2022/07/30 08:40:10;;;;;;;7.43;4.43;;;;;;;;;;4999916;28;20931;-71
2022/07/30 08:42:44;;;;;;;6.72;3.55;;;;;;;;;;4997431;28;20077;-72
2022/07/30 08:45:12;;;;;;;5.13;3.78;;;;;;;;;;5012731;28;20120;-70
2022/07/30 08:47:39;;;;;;;6.00;4.13;;;;;;;;;;5014698;28;20103;-73
2022/07/30 08:50:18;;;;;;;4.60;4.03;;;;;;;;;;4988209;28;20270;-73
2022/07/30 08:53:02;;;;;;;13.10;3.85;;;;;;;;;;4963609;28;20057;-73
2022/07/30 08:55:28;;;;;;;4.28;3.03;;;;;;;;;;4985660;28;20076;-74
2022/07/30 08:57:54;;;;;;;11.43;4.53;;;;;;;;;;5000893;28;20050;-72
2022/07/30 09:00:20;;;;;;;3.58;3.17;;;;;;;;;;4986088;28;20397;-74
2022/07/30 09:02:48;;;;;;;5.53;4.00;;;;;;;;;;4991071;28;20506;-75
2022/07/30 09:05:13;;;;;;;8.95;3.92;;;;;;;;;;4987440;28;20053;-71
2022/07/30 09:07:39;;;;;;;6.78;4.07;;;;;;;;;;4977100;28;20928;-72
2022/07/30 09:10:10;;;;;;;9.02;4.65;;;;;;;;;;4973541;28;20072;-73
2022/07/30 09:12:42;;;;;;;5.85;3.70;;;;;;;;;;4996004;28;20053;-72
2022/07/30 09:15:11;;;;;;;6.05;3.28;;;;;;;;;;4990256;28;20049;-73
2022/07/30 09:18:06;;;;;;;9.05;3.53;;;;;;;;;;5001657;28;20037;-73
2022/07/30 09:20:35;;;;;;;7.25;3.15;;;;;;;;;;4996523;28;20049;-71
2022/07/30 09:23:05;;;;;;;6.93;2.88;;;;;;;;;;4998647;28;20053;-70
2022/07/30 09:25:50;;;;;;;5.28;2.97;;;;;;;;;;4987551;28;20546;-71
2022/07/30 09:28:34;;;;;;;5.93;2.60;;;;;;;;;;5012693;28;20083;-72
2022/07/30 09:31:12;;;;;;;6.75;2.65;;;;;;;;;;5016858;28;20049;-76
2022/07/30 09:33:56;;;;;;;4.53;2.42;;;;;;;;;;5013291;28;20052;-73
2022/07/30 09:37:03;;;;;;;3.45;2.42;;;;;;;;;;4998466;28;20042;-72
2022/07/30 09:39:32;;;;;;;3.30;2.63;;;;;;;;;;5011270;28;20077;-72
2022/07/30 09:42:21;;;;;;;3.33;2.15;;;;;;;;;;5014181;28;20060;-73
2022/07/30 09:44:47;;;;;;;7.72;2.50;;;;;;;;;;5014105;28;20991;-72
2022/07/30 09:47:28;;;;;;;5.53;2.30;;;;;;;;;;4984479;28;20050;-72
2022/07/30 09:50:04;;;;;;;2.88;2.03;;;;;;;;;;5010578;28;20108;-74
2022/07/30 09:52:30;;;;;;;3.38;2.53;;;;;;;;;;5002187;28;20077;-72
2022/07/30 09:54:56;;;;;;;6.60;2.50;;;;;;;;;;4985901;28;20072;-71
2022/07/30 09:57:24;;;;;;;3.70;2.50;;;;;;;;;;5000560;28;20049;-74
2022/07/30 09:59:50;;;;;;;2.28;2.03;;;;;;;;;;4984538;28;20042;-71
2022/07/30 10:02:15;;;;;;;2.70;2.35;;;;;;;;;;4997837;28;20049;-74
2022/07/30 10:05:13;;;;;;;2.40;2.20;;;;;;;;;;4971719;28;20052;-73
2022/07/30 10:07:38;;;;;;;6.10;2.30;;;;;;;;;;4998274;28;20045;-74
2022/07/30 10:10:05;;;;;;;3.53;2.30;;;;;;;;;;4992320;28;20056;-73
2022/07/30 10:12:32;;;;;;;5.97;2.78;;;;;;;;;;5014150;28;20041;-71
2022/07/30 10:15:00;;;;;;;5.63;1.80;;;;;;;;;;4991410;28;20049;-73
2022/07/30 10:17:30;;;;;;;2.78;2.28;;;;;;;;;;5012096;28;20053;-72
2022/07/30 10:20:16;;;;;;;4.15;2.60;;;;;;;;;;4976217;28;20050;-75
2022/07/30 10:23:09;;;;;;;4.50;1.70;;;;;;;;;;4953647;28;20042;-76
2022/07/30 10:25:35;;;;;;;1.98;1.83;;;;;;;;;;5010276;28;20037;-72
2022/07/30 10:28:20;;;;;;;1.80;1.70;;;;;;;;;;5016886;28;20052;-71
2022/07/30 10:30:49;;;;;;;5.22;1.73;;;;;;;;;;4998669;28;20143;-73
2022/07/30 10:33:19;;;;;;;2.47;1.80;;;;;;;;;;5013777;28;20116;-73
2022/07/30 10:35:44;;;;;;;3.85;2.17;;;;;;;;;;5017220;28;20029;-73
2022/07/30 10:38:13;;;;;;;3.03;1.85;;;;;;;;;;5011330;28;20041;-73
2022/07/30 10:40:54;;;;;;;4.70;1.90;;;;;;;;;;4999260;28;20045;-74
2022/07/30 10:43:41;;;;;;;2.53;2.30;;;;;;;;;;5017005;28;20045;-74
2022/07/30 10:46:24;;;;;;;2.35;2.08;;;;;;;;;;5006602;28;20058;-74
2022/07/30 10:48:49;;;;;;;4.28;1.80;;;;;;;;;;4991196;28;20062;-75
2022/07/30 10:51:15;;;;;;;2.22;1.73;;;;;;;;;;4982690;28;20108;-74
2022/07/30 10:53:47;;;;;;;3.08;1.88;;;;;;;;;;4989333;28;20172;-73
2022/07/30 10:56:18;;;;;;;3.05;2.00;;;;;;;;;;5013439;28;20045;-72
2022/07/30 10:59:00;;;;;;;4.22;1.80;;;;;;;;;;5014828;28;20056;-72
2022/07/30 11:01:25;;;;;;;;;;;;;;;;;;5018969;28;20107;-73
2022/07/30 11:04:15;;;;;;;4.90;1.92;;;;;;;;;;5016351;28;20003;-71
2022/07/30 11:06:41;;;;;;;3.60;1.73;;;;;;;;;;5012363;28;20049;-71
2022/07/30 11:09:38;;;;;;;5.53;1.88;;;;;;;;;;5010465;28;20491;-73
2022/07/30 11:12:05;;;;;;;1.48;1.38;;;;;;;;;;4982670;28;20054;-72
2022/07/30 11:14:46;;;;;;;1.77;1.48;;;;;;;;;;5018381;28;20057;-71
2022/07/30 11:17:20;;;;;;;2.35;1.55;;;;;;;;;;5005966;28;20065;-72
2022/07/30 11:20:04;;;;;;;2.85;1.45;;;;;;;;;;5015355;28;20057;-72
2022/07/30 11:22:37;;;;;;;4.00;1.90;;;;;;;;;;5018542;28;20106;-73
2022/07/30 11:25:23;;;;;;;4.60;1.67;;;;;;;;;;5015638;28;20419;-73
2022/07/30 11:27:49;;;;;;;5.38;1.60;;;;;;;;;;4986833;28;20049;-73
2022/07/30 11:30:15;;;;;;;4.13;1.58;;;;;;;;;;5010320;28;20061;-73
2022/07/30 11:32:47;;;;;;;1.70;1.20;;;;;;;;;;5020630;28;20049;-74
2022/07/30 11:35:20;;;;;;;3.63;1.60;;;;;;;;;;5006463;28;20058;-72
2022/07/30 11:38:06;;;;;;;1.50;1.40;;;;;;;;;;5009966;28;20068;-72
2022/07/30 11:40:34;;;;;;;1.58;1.27;;;;;;;;;;5014930;28;20041;-72
2022/07/30 11:43:19;;;;;;;4.28;1.42;;;;;;;;;;5018305;28;20045;-72
2022/07/30 11:46:03;;;;;;;1.50;1.40;;;;;;;;;;5012512;28;20049;-73
2022/07/30 11:48:29;;;;;;;2.35;1.50;;;;;;;;;;4989121;28;20129;-72
2022/07/30 11:50:55;;;;;;;2.33;1.33;;;;;;;;;;5020055;28;20085;-73
2022/07/30 11:53:20;;;;;;;1.48;1.38;;;;;;;;;;5012570;28;20128;-71
2022/07/30 11:55:57;;;;;;;2.67;1.30;;;;;;;;;;4996542;28;21073;-70
2022/07/30 11:58:25;;;;;;;4.70;1.38;;;;;;;;;;5017426;28;20133;-71
2022/07/30 12:00:52;;;;;;;2.42;1.40;;;;;;;;;;4986846;28;20063;-73
2022/07/30 12:03:20;;;;;;;5.22;2.08;;;;;;;;;;5009751;28;20045;-74
2022/07/30 12:05:46;;;;;;;3.05;1.40;;;;;;;;;;5016017;28;20033;-74
2022/07/30 12:08:12;;;;;;;8.75;1.77;;;;;;;;;;5003475;28;20052;-71
2022/07/30 12:13:11;;;;;;;1.67;1.48;;;;;;;;;;4999183;28;20141;-71
2022/07/30 12:15:40;;;;;;;4.90;1.40;;;;;;;;;;5003602;28;20048;-73
2022/07/30 12:18:06;;;;;;;2.35;1.70;;;;;;;;;;5003852;28;20053;-72
2022/07/30 12:20:32;;;;;;;1.88;1.08;;;;;;;;;;4985544;28;20156;-72
2022/07/30 12:22:58;;;;;;;2.63;1.20;;;;;;;;;;5022480;28;20052;-72
2022/07/30 12:25:23;;;;;;;2.13;1.80;;;;;;;;;;5022739;28;20060;-72
2022/07/30 12:27:49;;;;;;;2.28;1.23;;;;;;;;;;5022878;28;20055;-71
2022/07/30 12:30:16;;;;;;;3.63;1.30;;;;;;;;;;5023029;28;20084;-72
2022/07/30 12:32:43;;;;;;;6.25;1.63;;;;;;;;;;5003828;28;20081;-72
2022/07/30 12:35:09;;;;;;;2.25;1.40;;;;;;;;;;5003986;28;20049;-72
2022/07/30 12:37:35;;;;;;;6.80;1.50;;;;;;;;;;5004114;28;20052;-72
2022/07/30 12:40:19;;;;;;;3.22;1.20;;;;;;;;;;5004665;28;20041;-71
2022/07/30 12:42:51;;;;;;;4.07;1.90;;;;;;;;;;5041333;28;20095;-71
2022/07/30 12:45:31;;;;;;;3.85;1.70;;;;;;;;;;5023628;28;20041;-70
2022/07/30 12:47:58;;;;;;;3.83;1.50;;;;;;;;;;5042402;28;20057;-71
2022/07/30 12:50:25;;;;;;;6.75;1.33;;;;;;;;;;5026089;28;20167;-71
2022/07/30 12:52:54;;;;;;;2.35;1.10;;;;;;;;;;5023472;28;20052;-71
2022/07/30 12:55:40;;;;;;;1.90;1.10;;;;;;;;;;5031037;28;20099;-72
2022/07/30 12:58:06;;;;;;;2.85;1.40;;;;;;;;;;5041440;28;20095;-73
2022/07/30 13:00:50;;;;;;;3.45;1.52;;;;;;;;;;5041477;28;20041;-73
2022/07/30 13:03:27;;;;;;;2.53;1.63;;;;;;;;;;5043213;28;20079;-70
2022/07/30 13:05:55;;;;;;;1.55;1.42;;;;;;;;;;5043512;28;20049;-72
2022/07/30 13:08:40;;;;;;;1.20;1.10;;;;;;;;;;5040720;28;20483;-72
2022/07/30 13:11:06;;;;;;;1.70;1.17;;;;;;;;;;5028044;28;20560;-72
2022/07/30 13:13:33;;;;;;;1.10;1.00;;;;;;;;;;5041438;28;20048;-71
2022/07/30 13:16:00;;;;;;;4.53;1.23;;;;;;;;;;5041434;28;20986;-70
2022/07/30 13:18:28;;;;;;;3.38;1.20;;;;;;;;;;5038906;28;20950;-70
2022/07/30 13:20:53;;;;;;;1.40;1.30;;;;;;;;;;5040303;28;20758;-70
2022/07/30 13:23:19;;;;;;;1.05;1.00;;;;;;;;;;5039692;28;20186;-70
2022/07/30 13:25:44;;;;;;;3.03;0.80;;;;;;;;;;5040052;28;20441;-70
2022/07/30 13:28:09;;;;;;;1.50;0.80;;;;;;;;;;5039641;28;20087;-70
2022/07/30 13:30:35;;;;;;;2.75;1.00;;;;;;;;;;5038704;28;20112;-69
2022/07/30 13:33:00;;;;;;;0.90;0.80;;;;;;;;;;5041168;28;20056;-71
2022/07/30 13:35:26;;;;;;;2.25;1.00;;;;;;;;;;5042039;28;20414;-71
2022/07/30 13:37:51;;;;;;;2.00;0.90;;;;;;;;;;5038611;28;20548;-70
2022/07/30 13:40:17;;;;;;;3.00;0.95;;;;;;;;;;5022237;28;20045;-68
2022/07/30 13:42:43;;;;;;;1.00;0.80;;;;;;;;;;5039784;28;20044;-71
2022/07/30 13:45:08;;;;;;;4.53;1.00;;;;;;;;;;5039905;28;20049;-70
2022/07/30 13:47:34;;;;;;;2.38;1.13;;;;;;;;;;5040660;28;20398;-71
2022/07/30 13:49:59;;;;;;;2.60;1.20;;;;;;;;;;5020589;28;20680;-71
2022/07/30 13:52:25;;;;;;;6.28;1.10;;;;;;;;;;5039208;28;20045;-72
2022/07/30 13:54:52;;;;;;;1.33;1.10;;;;;;;;;;5041065;28;20115;-72
2022/07/30 13:57:18;;;;;;;1.42;1.17;;;;;;;;;;5041118;28;20460;-71
2022/07/30 13:59:43;;;;;;;2.33;1.20;;;;;;;;;;5013558;28;20048;-71
2022/07/30 14:02:09;;;;;;;1.20;1.10;;;;;;;;;;5040105;28;20045;-70
2022/07/30 14:04:34;;;;;;;5.20;2.42;;;;;;;;;;5039469;28;20044;-71
2022/07/30 14:07:00;;;;;;;2.88;1.38;;;;;;;;;;5023059;28;20406;-70
2022/07/30 14:09:27;;;;;;;4.78;1.23;;;;;;;;;;5022677;28;20072;-69
2022/07/30 14:11:53;;;;;;;6.00;1.55;;;;;;;;;;5025454;28;20056;-70
2022/07/30 14:14:21;;;;;;;3.30;1.52;;;;;;;;;;5019459;28;20550;-69
2022/07/30 14:16:49;;;;;;;3.25;1.30;;;;;;;;;;5038311;28;20548;-68
2022/07/30 14:19:18;;;;;;;2.28;1.20;;;;;;;;;;5037629;28;20512;-69
2022/07/30 14:21:44;;;;;;;5.65;1.25;;;;;;;;;;5021126;28;20064;-69
2022/07/30 14:24:11;;;;;;;7.60;2.15;;;;;;;;;;5037418;28;20141;-71
2022/07/30 14:26:37;;;;;;;1.90;1.20;;;;;;;;;;5038384;28;20068;-71
2022/07/30 14:29:06;;;;;;;3.17;1.30;;;;;;;;;;5040165;28;20114;-71
2022/07/30 14:31:31;;;;;;;2.42;1.40;;;;;;;;;;5040212;28;20045;-72
2022/07/30 14:33:57;;;;;;;2.30;1.50;;;;;;;;;;5039885;28;20425;-71
2022/07/30 14:36:24;;;;;;;4.10;1.27;;;;;;;;;;5038877;28;20045;-73
2022/07/30 14:38:49;;;;;;;2.30;1.25;;;;;;;;;;5040246;28;20498;-71
2022/07/30 14:41:15;;;;;;;2.42;1.42;;;;;;;;;;5039997;28;20044;-70
2022/07/30 14:43:40;;;;;;;2.05;1.50;;;;;;;;;;5040402;28;20041;-70
2022/07/30 14:46:06;;;;;;;3.42;1.48;;;;;;;;;;5022184;28;20040;-70
2022/07/30 14:48:31;;;;;;;1.92;1.45;;;;;;;;;;5019949;28;20055;-71
2022/07/30 14:50:56;;;;;;;4.07;1.70;;;;;;;;;;5021959;28;20491;-71
2022/07/30 14:53:22;;;;;;;1.60;1.25;;;;;;;;;;5037897;28;20049;-72
2022/07/30 14:55:47;;;;;;;4.10;1.40;;;;;;;;;;5037937;28;20076;-69
2022/07/30 14:58:13;;;;;;;3.30;1.42;;;;;;;;;;5037320;28;20094;-70
2022/07/30 15:00:38;;;;;;;2.03;1.30;;;;;;;;;;5039132;28;20049;-68
2022/07/30 15:03:04;;;;;;;1.67;1.30;;;;;;;;;;5041618;28;20682;-68
2022/07/30 15:05:29;;;;;;;1.52;1.25;;;;;;;;;;5039784;28;20107;-70
2022/07/30 15:07:55;;;;;;;1.77;1.27;;;;;;;;;;5040215;28;20056;-70
2022/07/30 15:10:20;;;;;;;1.85;1.38;;;;;;;;;;5004542;28;20039;-70